createdAt,value
2019-06-08T00:00:08.790Z,16.48
2019-06-08T00:02:47.093Z,18.17
2019-06-08T00:05:24.886Z,10.72
2019-06-08T00:08:02.127Z,14.60
2019-06-08T00:10:40.591Z,14.30
2019-06-08T00:13:19.731Z,15.53
2019-06-08T00:15:56.967Z,15.13
2019-06-08T00:18:34.699Z,15.35
2019-06-08T00:21:13.476Z,11.40
2019-06-08T00:23:51.501Z,7.12
2019-06-08T00:26:29.282Z,7.22
2019-06-08T00:29:06.834Z,7.25
2019-06-08T00:31:44.941Z,8.58
2019-06-08T00:34:22.715Z,9.10
2019-06-08T00:37:00.049Z,6.80
2019-06-08T00:39:37.602Z,7.05
2019-06-08T00:42:17.095Z,7.97
2019-06-08T00:44:54.471Z,6.72
2019-06-08T00:47:47.086Z,6.08
2019-06-08T00:50:11.581Z,6.62
2019-06-08T00:52:49.900Z,6.08
2019-06-08T00:55:29.770Z,6.50
2019-06-08T00:58:07.526Z,7.87
2019-06-08T01:00:44.649Z,4.55
2019-06-08T01:03:23.928Z,5.58
2019-06-08T01:06:01.358Z,8.68
2019-06-08T01:08:39.510Z,13.08
2019-06-08T01:11:18.638Z,12.23
2019-06-08T01:13:56.994Z,9.63
2019-06-08T01:16:34.514Z,15.13
2019-06-08T01:19:13.501Z,14.68
2019-06-08T01:21:50.720Z,12.70
2019-06-08T01:24:29.910Z,13.10
2019-06-08T01:27:08.490Z,12.23
2019-06-08T01:29:46.495Z,12.00
2019-06-08T01:32:24.300Z,13.20
2019-06-08T01:35:02.249Z,10.30
2019-06-08T01:37:41.525Z,13.18
2019-06-08T01:40:18.953Z,13.43
2019-06-08T01:42:56.240Z,13.13
2019-06-08T01:45:34.776Z,13.72
2019-06-08T01:48:20.165Z,13.35
2019-06-08T01:50:51.999Z,12.33
2019-06-08T01:53:31.058Z,11.10
2019-06-08T01:56:11.056Z,26.85
2019-06-08T01:58:49.905Z,26.45
2019-06-08T02:01:27.825Z,15.18
2019-06-08T02:04:05.356Z,20.55
2019-06-08T02:06:43.231Z,14.55
2019-06-08T02:09:20.793Z,16.07
2019-06-08T02:11:58.855Z,14.78
2019-06-08T02:14:36.524Z,30.55
2019-06-08T02:17:15.157Z,12.37
2019-06-08T02:19:52.162Z,16.35
2019-06-08T02:22:29.444Z,8.45
2019-06-08T02:25:07.171Z,12.23
2019-06-08T02:27:45.273Z,10.50
2019-06-08T02:30:24.031Z,10.20
2019-06-08T02:33:02.408Z,10.00
2019-06-08T02:35:41.596Z,12.85
2019-06-08T02:38:19.574Z,12.50
2019-06-08T02:40:56.866Z,11.88
2019-06-08T02:43:35.684Z,16.37
2019-06-08T02:46:14.027Z,14.30
2019-06-08T02:49:03.126Z,20.50
2019-06-08T02:51:31.238Z,17.07
2019-06-08T02:54:08.826Z,17.92
2019-06-08T02:56:45.840Z,16.93
2019-06-08T02:59:25.341Z,13.68
2019-06-08T03:02:04.287Z,13.62
2019-06-08T03:04:42.857Z,18.42
2019-06-08T03:07:23.107Z,23.83
2019-06-08T03:10:01.891Z,23.00
2019-06-08T03:12:42.562Z,14.80
2019-06-08T03:15:22.713Z,16.65
2019-06-08T03:17:59.874Z,21.10
2019-06-08T03:20:39.992Z,21.02
2019-06-08T03:23:17.205Z,18.48
2019-06-08T03:25:54.704Z,17.32
2019-06-08T03:28:32.611Z,27.10
2019-06-08T03:31:10.874Z,25.57
2019-06-08T03:33:54.964Z,27.07
2019-06-08T03:36:28.442Z,29.72
2019-06-08T03:39:06.968Z,35.75
2019-06-08T03:41:45.365Z,35.25
2019-06-08T03:44:23.062Z,34.33
2019-06-08T03:47:00.669Z,34.80
2019-06-08T03:49:50.638Z,37.15
2019-06-08T03:52:18.288Z,47.38
2019-06-08T03:54:55.661Z,61.20
2019-06-08T03:57:32.930Z,51.73
2019-06-08T04:00:13.496Z,52.58
2019-06-08T04:02:51.129Z,54.70
2019-06-08T04:05:30.249Z,49.60
2019-06-08T04:08:07.871Z,46.73
2019-06-08T04:10:46.747Z,60.08
2019-06-08T04:13:24.720Z,61.05
2019-06-08T04:16:02.129Z,51.23
2019-06-08T04:18:40.703Z,57.85
2019-06-08T04:21:19.489Z,50.10
2019-06-08T04:23:57.614Z,53.80
2019-06-08T04:26:34.823Z,49.42
2019-06-08T04:29:13.667Z,95.80
2019-06-08T04:31:51.246Z,46.85
2019-06-08T04:34:29.841Z,32.20
2019-06-08T04:37:08.254Z,38.63
2019-06-08T04:39:47.014Z,41.60
2019-06-08T04:42:23.851Z,41.05
2019-06-08T04:45:01.483Z,29.48
2019-06-08T04:47:41.065Z,19.57
2019-06-08T04:50:23.391Z,26.37
2019-06-08T04:52:57.449Z,27.48
2019-06-08T04:55:35.439Z,26.25
2019-06-08T04:58:12.883Z,21.68
2019-06-08T05:00:51.135Z,21.57
2019-06-08T05:03:28.549Z,20.02
2019-06-08T05:06:06.832Z,19.92
2019-06-08T05:08:45.391Z,24.80
2019-06-08T05:11:22.787Z,21.07
2019-06-08T05:13:59.888Z,22.73
2019-06-08T05:16:39.066Z,24.98
2019-06-08T05:19:16.681Z,21.48
2019-06-08T05:21:54.868Z,20.92
2019-06-08T05:24:32.343Z,17.12
2019-06-08T05:27:10.307Z,18.95
2019-06-08T05:29:47.740Z,19.85
2019-06-08T05:32:25.042Z,16.35
2019-06-08T05:35:02.998Z,25.32
2019-06-08T05:37:41.552Z,21.40
2019-06-08T05:40:20.302Z,13.22
2019-06-08T05:42:58.034Z,12.65
2019-06-08T05:45:35.531Z,10.68
2019-06-08T05:48:13.868Z,11.25
2019-06-08T05:51:03.026Z,16.07
2019-06-08T05:53:30.552Z,13.60
2019-06-08T05:56:08.109Z,12.03
2019-06-08T05:58:46.467Z,13.03
2019-06-08T06:01:23.510Z,8.70
2019-06-08T06:04:00.420Z,6.30
2019-06-08T06:06:37.499Z,5.97
2019-06-08T06:09:15.496Z,6.12
2019-06-08T06:11:53.829Z,7.35
2019-06-08T06:14:32.029Z,5.60
2019-06-08T06:17:10.049Z,4.33
2019-06-08T06:19:49.035Z,7.58
2019-06-08T06:22:26.699Z,7.45
2019-06-08T06:25:03.660Z,8.20
2019-06-08T06:27:41.388Z,12.20
2019-06-08T06:30:21.022Z,7.37
2019-06-08T06:32:58.275Z,8.30
2019-06-08T06:35:35.732Z,7.00
2019-06-08T06:38:13.335Z,6.55
2019-06-08T06:40:52.206Z,6.50
2019-06-08T06:43:31.071Z,7.35
2019-06-08T06:46:08.957Z,10.72
2019-06-08T06:48:46.518Z,6.83
2019-06-08T06:51:26.900Z,8.58
2019-06-08T06:54:04.302Z,16.17
2019-06-08T06:56:43.107Z,10.93
2019-06-08T06:59:20.390Z,8.33
2019-06-08T07:01:59.363Z,9.53
2019-06-08T07:04:37.267Z,13.53
2019-06-08T07:07:14.803Z,14.68
2019-06-08T07:09:52.748Z,9.85
2019-06-08T07:12:30.419Z,11.20
2019-06-08T07:15:11.179Z,9.15
2019-06-08T07:17:48.489Z,11.12
2019-06-08T07:20:26.152Z,11.55
2019-06-08T07:23:04.118Z,17.65
2019-06-08T07:25:43.549Z,11.18
2019-06-08T07:28:20.591Z,11.57
2019-06-08T07:30:58.845Z,12.75
2019-06-08T07:33:37.280Z,17.80
2019-06-08T07:36:14.371Z,12.47
2019-06-08T07:38:51.468Z,9.73
2019-06-08T07:41:28.827Z,8.48
2019-06-08T07:44:06.338Z,44.03
2019-06-08T07:46:44.647Z,36.13
2019-06-08T07:49:22.017Z,11.75
2019-06-08T07:52:09.432Z,10.48
2019-06-08T07:54:39.489Z,9.88
2019-06-08T07:57:18.077Z,8.05
2019-06-08T07:59:58.429Z,5.55
2019-06-08T08:02:36.491Z,10.45
2019-06-08T08:05:15.122Z,9.15
2019-06-08T08:07:52.528Z,15.83
2019-06-08T08:10:30.642Z,10.38
2019-06-08T08:13:08.443Z,8.40
2019-06-08T08:15:47.185Z,9.25
2019-06-08T08:18:25.509Z,9.28
2019-06-08T08:21:14.353Z,7.72
2019-06-08T08:23:41.784Z,10.98
2019-06-08T08:26:19.747Z,9.15
2019-06-08T08:29:01.320Z,13.98
2019-06-08T08:31:38.174Z,11.45
2019-06-08T08:34:18.155Z,19.52
2019-06-08T08:37:01.389Z,10.53
2019-06-08T08:39:34.736Z,5.28
2019-06-08T08:42:12.395Z,6.12
2019-06-08T08:44:51.044Z,7.75
2019-06-08T08:47:30.767Z,7.72
2019-06-08T08:50:09.438Z,4.80
2019-06-08T08:52:47.713Z,4.17
2019-06-08T08:55:25.198Z,5.35
2019-06-08T08:58:03.967Z,24.30
2019-06-08T09:00:41.601Z,8.53
2019-06-08T09:03:28.696Z,16.15
2019-06-08T09:06:01.489Z,13.70
2019-06-08T09:08:38.386Z,31.35
2019-06-08T09:11:17.452Z,24.43
2019-06-08T09:13:55.539Z,22.10
2019-06-08T09:16:33.878Z,16.10
2019-06-08T09:19:12.301Z,16.00
2019-06-08T09:21:52.481Z,26.82
2019-06-08T09:24:29.907Z,22.30
2019-06-08T09:27:08.018Z,24.15
2019-06-08T09:29:48.226Z,25.95
2019-06-08T09:32:28.081Z,16.60
2019-06-08T09:35:04.997Z,17.85
2019-06-08T09:37:42.974Z,18.00
2019-06-08T09:40:21.821Z,2.80
2019-06-08T09:43:07.428Z,6.28
2019-06-08T09:45:38.345Z,3.67
2019-06-08T09:48:18.236Z,4.85
2019-06-08T09:50:57.670Z,3.20
2019-06-08T09:53:41.087Z,8.10
2019-06-08T09:56:18.549Z,4.67
2019-06-08T09:58:57.384Z,2.83
2019-06-08T10:01:38.281Z,6.30
2019-06-08T10:04:14.917Z,7.30
2019-06-08T10:06:52.306Z,5.95
2019-06-08T10:09:29.749Z,4.10
2019-06-08T10:12:09.857Z,4.45
2019-06-08T10:14:48.990Z,3.47
2019-06-08T10:17:28.235Z,6.42
2019-06-08T10:20:09.611Z,4.40
2019-06-08T10:22:49.985Z,3.40
2019-06-08T10:25:28.670Z,3.55
2019-06-08T10:28:11.283Z,5.15
2019-06-08T10:30:45.303Z,2.02
2019-06-08T10:33:23.192Z,3.83
2019-06-08T10:36:03.124Z,3.20
2019-06-08T10:38:41.294Z,3.80
2019-06-08T10:41:21.801Z,3.65
2019-06-08T10:44:01.211Z,5.17
2019-06-08T10:46:40.609Z,4.53
2019-06-08T10:49:18.683Z,3.80
2019-06-08T10:51:58.980Z,5.22
2019-06-08T10:54:37.824Z,5.30
2019-06-08T10:57:32.913Z,4.55
2019-06-08T11:00:17.971Z,4.30
2019-06-08T11:02:49.427Z,4.97
2019-06-08T11:05:28.045Z,10.43
2019-06-08T11:08:08.656Z,9.88
2019-06-08T11:10:47.385Z,11.30
2019-06-08T11:13:23.762Z,4.00
2019-06-08T11:16:02.808Z,13.95
2019-06-08T11:18:42.061Z,12.58
2019-06-08T11:21:20.131Z,5.78
2019-06-08T11:24:07.569Z,9.05
2019-06-08T11:26:40.161Z,15.83
2019-06-08T11:29:18.763Z,15.23
2019-06-08T11:31:58.663Z,14.43
2019-06-08T11:34:37.738Z,16.42
2019-06-08T11:37:20.815Z,17.12
2019-06-08T11:39:57.565Z,22.05
2019-06-08T11:42:34.778Z,16.65
2019-06-08T11:45:13.226Z,4.80
2019-06-08T11:47:51.249Z,8.20
2019-06-08T11:50:42.233Z,5.05
2019-06-08T11:53:20.269Z,6.53
2019-06-08T11:55:58.585Z,3.77
2019-06-08T11:58:38.912Z,12.82
2019-06-08T12:01:18.734Z,13.60
2019-06-08T12:03:57.936Z,5.42
2019-06-08T12:06:37.550Z,6.10
2019-06-08T12:09:14.964Z,9.10
2019-06-08T12:11:52.367Z,11.38
2019-06-08T12:14:33.537Z,11.08
2019-06-08T12:17:13.507Z,12.15
2019-06-08T12:19:49.067Z,16.32
2019-06-08T12:22:26.368Z,11.12
2019-06-08T12:25:03.910Z,17.67
2019-06-08T12:27:41.169Z,15.35
2019-06-08T12:30:25.944Z,45.15
2019-06-08T12:33:01.070Z,31.45
2019-06-08T12:35:38.606Z,56.33
2019-06-08T12:38:18.720Z,24.15
2019-06-08T12:40:58.503Z,36.75
2019-06-08T12:43:35.256Z,16.67
2019-06-08T12:46:14.373Z,25.85
2019-06-08T12:48:52.111Z,16.57
2019-06-08T12:51:30.128Z,48.28
2019-06-08T12:54:08.446Z,25.23
2019-06-08T12:56:47.933Z,11.78
2019-06-08T12:59:25.201Z,14.63
2019-06-08T13:02:03.452Z,14.95
2019-06-08T13:04:41.878Z,23.60
2019-06-08T13:07:19.200Z,13.50
2019-06-08T13:09:58.333Z,9.45
2019-06-08T13:12:35.960Z,8.13
2019-06-08T13:15:12.986Z,6.95
2019-06-08T13:17:50.876Z,5.30
2019-06-08T13:20:28.406Z,6.65
2019-06-08T13:23:08.718Z,6.20
2019-06-08T13:25:47.859Z,7.78
2019-06-08T13:28:25.640Z,9.63
2019-06-08T13:31:03.713Z,6.87
2019-06-08T13:33:41.660Z,8.33
2019-06-08T13:36:26.068Z,7.33
2019-06-08T13:38:59.440Z,10.23
2019-06-08T13:41:38.387Z,6.00
2019-06-08T13:44:16.133Z,9.05
2019-06-08T13:46:53.356Z,9.73
2019-06-08T13:49:31.809Z,11.22
2019-06-08T13:52:09.354Z,11.60
2019-06-08T13:54:48.183Z,11.75
2019-06-08T13:57:25.739Z,11.45
2019-06-08T14:00:03.522Z,6.85
2019-06-08T14:02:41.824Z,7.97
2019-06-08T14:05:28.486Z,10.43
2019-06-08T14:08:05.054Z,6.62
2019-06-08T14:10:48.134Z,7.20
2019-06-08T14:13:29.274Z,14.87
2019-06-08T14:16:04.334Z,11.73
2019-06-08T14:18:41.794Z,8.83
2019-06-08T14:21:28.014Z,10.20
2019-06-08T14:23:58.843Z,8.98
2019-06-08T14:26:37.513Z,6.67
2019-06-08T14:29:15.271Z,6.58
2019-06-08T14:31:53.440Z,11.20
2019-06-08T14:34:31.298Z,6.85
2019-06-08T14:37:09.154Z,7.83
2019-06-08T14:39:48.593Z,7.83
2019-06-08T14:42:29.894Z,8.70
2019-06-08T14:45:07.537Z,17.00
2019-06-08T14:47:47.573Z,9.70
2019-06-08T14:50:24.525Z,12.18
2019-06-08T14:53:02.375Z,12.60
2019-06-08T14:55:39.638Z,14.63
2019-06-08T14:58:18.646Z,12.10
2019-06-08T15:00:57.970Z,8.18
2019-06-08T15:03:38.071Z,9.75
2019-06-08T15:06:14.587Z,8.68
2019-06-08T15:08:53.146Z,7.17
2019-06-08T15:11:34.899Z,5.87
2019-06-08T15:14:10.581Z,7.28
2019-06-08T15:16:49.359Z,6.17
2019-06-08T15:19:29.469Z,4.60
2019-06-08T15:22:08.774Z,6.10
2019-06-08T15:24:47.872Z,6.67
2019-06-08T15:27:26.493Z,5.60
2019-06-08T15:30:04.677Z,6.40
2019-06-08T15:32:42.522Z,7.20
2019-06-08T15:35:21.064Z,6.30
2019-06-08T15:37:58.666Z,7.95
2019-06-08T15:40:37.903Z,8.98
2019-06-08T15:43:18.287Z,7.03
2019-06-08T15:45:58.955Z,7.28
2019-06-08T15:48:34.906Z,9.70
2019-06-08T15:51:12.725Z,8.73
2019-06-08T15:53:50.441Z,11.03
2019-06-08T15:56:43.168Z,11.50
2019-06-08T15:59:08.859Z,7.92
2019-06-08T16:01:47.863Z,6.45
2019-06-08T16:04:25.926Z,13.15
2019-06-08T16:07:04.197Z,8.55
2019-06-08T16:09:42.956Z,8.63
2019-06-08T16:12:20.896Z,7.58
2019-06-08T16:14:59.468Z,8.55
2019-06-08T16:17:37.016Z,8.28
2019-06-08T16:20:15.426Z,11.97
2019-06-08T16:22:54.864Z,14.63
2019-06-08T16:25:36.725Z,10.40
2019-06-08T16:28:11.285Z,12.35
2019-06-08T16:30:49.036Z,14.13
2019-06-08T16:33:27.429Z,15.43
2019-06-08T16:36:04.362Z,15.68
2019-06-08T16:38:41.233Z,18.77
2019-06-08T16:41:18.528Z,21.27
2019-06-08T16:43:56.755Z,21.48
2019-06-08T16:46:36.576Z,17.92
2019-06-08T16:49:13.875Z,26.23
2019-06-08T16:51:50.807Z,21.50
2019-06-08T16:54:30.594Z,22.80
2019-06-08T16:57:10.798Z,17.17
2019-06-08T16:59:46.820Z,21.20
2019-06-08T17:02:24.013Z,19.07
2019-06-08T17:05:02.160Z,17.87
2019-06-08T17:07:39.965Z,19.42
2019-06-08T17:10:17.404Z,20.37
2019-06-08T17:12:54.728Z,22.22
2019-06-08T17:15:34.006Z,19.27
2019-06-08T17:18:12.476Z,17.12
2019-06-08T17:20:49.411Z,20.77
2019-06-08T17:23:27.330Z,20.55
2019-06-08T17:26:05.811Z,20.85
2019-06-08T17:28:42.763Z,19.57
2019-06-08T17:31:20.504Z,16.93
2019-06-08T17:33:58.973Z,17.95
2019-06-08T17:36:36.966Z,23.30
2019-06-08T17:39:14.493Z,17.98
2019-06-08T17:41:52.514Z,23.60
2019-06-08T17:44:30.241Z,20.40
2019-06-08T17:47:08.049Z,19.90
2019-06-08T17:49:46.756Z,16.60
2019-06-08T17:52:27.250Z,16.57
2019-06-08T17:55:03.635Z,15.50
2019-06-08T17:57:52.701Z,15.35
2019-06-08T18:00:22.358Z,12.33
2019-06-08T18:03:00.611Z,21.45
2019-06-08T18:05:41.985Z,15.40
2019-06-08T18:08:18.266Z,16.12
2019-06-08T18:10:57.446Z,13.65
2019-06-08T18:13:34.308Z,14.90
2019-06-08T18:16:11.406Z,13.85
2019-06-08T18:18:50.686Z,10.70
2019-06-08T18:21:29.286Z,13.95
2019-06-08T18:24:07.781Z,17.75
2019-06-08T18:26:47.398Z,15.65
2019-06-08T18:29:27.538Z,17.23
2019-06-08T18:32:04.363Z,17.17
2019-06-08T18:34:43.373Z,19.15
2019-06-08T18:37:21.781Z,14.55
2019-06-08T18:39:59.977Z,15.50
2019-06-08T18:42:39.604Z,14.00
2019-06-08T18:45:18.285Z,19.10
2019-06-08T18:47:57.804Z,15.25
2019-06-08T18:50:35.912Z,11.57
2019-06-08T18:53:18.909Z,14.70
2019-06-08T18:55:57.978Z,15.05
2019-06-08T18:58:35.594Z,14.15
2019-06-08T19:01:13.641Z,17.10
2019-06-08T19:03:52.545Z,14.65
2019-06-08T19:06:29.845Z,14.13
2019-06-08T19:09:07.642Z,15.45
2019-06-08T19:11:48.431Z,16.77
2019-06-08T19:14:28.459Z,16.27
2019-06-08T19:17:04.527Z,15.18
2019-06-08T19:19:45.736Z,17.12
2019-06-08T19:22:21.761Z,13.03
2019-06-08T19:25:01.370Z,15.00
2019-06-08T19:27:45.135Z,14.65
2019-06-08T19:30:20.351Z,8.25
2019-06-08T19:32:58.829Z,13.38
2019-06-08T19:35:37.670Z,7.28
2019-06-08T19:38:17.987Z,8.05
2019-06-08T19:40:57.254Z,7.33
2019-06-08T19:43:34.443Z,10.70
2019-06-08T19:46:11.353Z,8.50
2019-06-08T19:48:54.560Z,8.65
2019-06-08T19:51:28.258Z,11.40
2019-06-08T19:54:07.599Z,8.85
2019-06-08T19:56:52.407Z,8.85
2019-06-08T19:59:27.480Z,9.48
2019-06-08T20:02:05.124Z,7.22
2019-06-08T20:04:44.781Z,9.18
2019-06-08T20:07:22.243Z,7.08
2019-06-08T20:10:00.869Z,7.60
2019-06-08T20:12:38.482Z,6.70
2019-06-08T20:15:18.378Z,10.88
2019-06-08T20:17:57.536Z,9.33
2019-06-08T20:20:38.012Z,11.85
2019-06-08T20:23:14.764Z,9.03
2019-06-08T20:25:53.884Z,11.40
2019-06-08T20:28:33.045Z,15.00
2019-06-08T20:31:10.434Z,12.60
2019-06-08T20:33:50.300Z,11.33
2019-06-08T20:36:28.850Z,14.00
2019-06-08T20:39:07.450Z,12.80
2019-06-08T20:41:48.196Z,11.43
2019-06-08T20:44:24.189Z,10.82
2019-06-08T20:47:03.084Z,12.40
2019-06-08T20:49:42.181Z,16.20
2019-06-08T20:52:20.025Z,13.20
2019-06-08T20:54:58.200Z,11.05
2019-06-08T20:57:38.319Z,8.33
2019-06-08T21:00:17.234Z,10.32
2019-06-08T21:03:01.768Z,8.25
2019-06-08T21:05:34.020Z,12.20
2019-06-08T21:08:13.336Z,9.98
2019-06-08T21:10:52.931Z,11.20
2019-06-08T21:13:30.157Z,7.97
2019-06-08T21:16:08.176Z,10.23
2019-06-08T21:18:47.353Z,10.10
2019-06-08T21:21:25.038Z,8.40
2019-06-08T21:24:03.082Z,9.10
2019-06-08T21:26:42.124Z,8.68
2019-06-08T21:29:20.406Z,8.40
2019-06-08T21:32:02.304Z,12.70
2019-06-08T21:34:38.947Z,12.73
2019-06-08T21:37:18.613Z,6.92
2019-06-08T21:40:03.176Z,7.25
2019-06-08T21:42:37.077Z,12.73
2019-06-08T21:45:14.351Z,8.23
2019-06-08T21:47:53.315Z,8.43
2019-06-08T21:50:31.807Z,8.83
2019-06-08T21:53:09.220Z,7.25
2019-06-08T21:55:46.514Z,7.78
2019-06-08T21:58:23.963Z,9.80
2019-06-08T22:01:03.210Z,8.25
2019-06-08T22:03:41.773Z,7.15
2019-06-08T22:06:19.478Z,9.85
2019-06-08T22:09:00.834Z,9.13
2019-06-08T22:11:37.711Z,5.78
2019-06-08T22:14:15.463Z,8.43
2019-06-08T22:16:54.175Z,9.05
2019-06-08T22:19:32.634Z,7.85
2019-06-08T22:22:11.402Z,11.57
2019-06-08T22:24:49.364Z,8.15
2019-06-08T22:27:27.638Z,10.50
2019-06-08T22:30:09.818Z,10.00
2019-06-08T22:32:47.373Z,7.78
2019-06-08T22:35:27.577Z,9.28
2019-06-08T22:38:05.200Z,8.05
2019-06-08T22:40:43.006Z,8.50
2019-06-08T22:43:22.005Z,8.13
2019-06-08T22:46:01.701Z,8.98
2019-06-08T22:48:39.372Z,9.80
2019-06-08T22:51:18.786Z,5.97
2019-06-08T22:53:58.928Z,10.85
2019-06-08T22:56:37.233Z,10.88
2019-06-08T22:59:17.490Z,8.88
2019-06-08T23:01:55.730Z,13.90
2019-06-08T23:04:34.571Z,9.63
2019-06-08T23:07:26.579Z,6.50
2019-06-08T23:09:55.012Z,9.13
2019-06-08T23:12:32.546Z,8.73
2019-06-08T23:15:11.523Z,9.80
2019-06-08T23:17:48.850Z,10.55
2019-06-08T23:20:27.626Z,10.25
2019-06-08T23:23:08.635Z,12.18
2019-06-08T23:25:47.915Z,10.48
2019-06-08T23:28:28.245Z,8.15
2019-06-08T23:31:19.782Z,9.88
2019-06-08T23:33:44.991Z,12.78
2019-06-08T23:36:46.047Z,8.85
2019-06-08T23:39:03.257Z,8.30
2019-06-08T23:41:40.933Z,9.08
2019-06-08T23:44:18.443Z,14.18
2019-06-08T23:46:58.583Z,9.08
2019-06-08T23:49:38.013Z,12.10
2019-06-08T23:52:17.798Z,12.75
2019-06-08T23:54:59.463Z,17.00
2019-06-08T23:57:38.031Z,15.55
